Time;durP1;ratioP1;P1;durP2;ratioP2;P2;SDS_P1;SDS_P2;PMS_P1;PMS_P2;Temp;Humidity;BMP_temperature;BMP_pressure;BME280_temperature;BME280_humidity;BME280_pressure;Samples;Min_cycle;Max_cycle;Signal;HPM_P1;HPM_P2
2022/04/26 03:36:31;;;;;;;7.77;6.77;;;1.80;99.90;;;;;;5037813;28;20456;-51
2022/04/26 03:38:57;;;;;;;7.77;7.00;;;1.80;99.90;;;;;;5083773;28;20501;-51
2022/04/26 03:41:24;;;;;;;7.77;6.93;;;1.70;99.90;;;;;;5081575;28;20457;-51
2022/04/26 03:43:50;;;;;;;7.77;7.00;;;1.70;99.90;;;;;;5083139;28;20479;-51
2022/04/26 03:46:17;;;;;;;8.17;7.37;;;1.70;99.90;;;;;;5083903;28;20888;-51
2022/04/26 03:48:45;;;;;;;7.50;6.57;;;1.80;99.90;;;;;;5084293;28;20582;-51
2022/04/26 03:51:11;;;;;;;8.47;7.00;;;1.80;99.90;;;;;;5084576;28;20471;-51
2022/04/26 03:53:39;;;;;;;8.43;7.60;;;1.70;99.90;;;;;;5083877;28;20933;-51
2022/04/26 03:56:06;;;;;;;9.10;7.17;;;1.80;99.90;;;;;;5082515;28;20537;-51
2022/04/26 03:58:33;;;;;;;9.50;6.27;;;1.80;99.90;;;;;;5081131;28;20514;-51
2022/04/26 04:00:59;;;;;;;9.10;7.40;;;1.80;99.90;;;;;;5083226;28;20959;-50
2022/04/26 04:03:26;;;;;;;12.40;7.63;;;1.80;99.90;;;;;;5083342;28;20484;-52
2022/04/26 04:05:54;;;;;;;9.63;6.53;;;1.80;99.90;;;;;;5082508;28;20484;-51
2022/04/26 04:08:21;;;;;;;15.50;8.60;;;1.80;99.90;;;;;;5072676;28;20561;-50
2022/04/26 04:10:47;;;;;;;7.80;7.00;;;1.90;99.90;;;;;;5079894;28;20823;-53
2022/04/26 04:13:14;;;;;;;7.10;6.40;;;1.90;99.90;;;;;;5081795;28;20491;-53
2022/04/26 04:15:40;;;;;;;8.67;7.57;;;2.00;99.90;;;;;;5083499;28;21265;-53
2022/04/26 04:19:17;;;;;;;7.50;6.80;;;2.10;99.90;;;;;;5082181;28;20448;-54
2022/04/26 04:20:55;;;;;;;8.93;7.83;;;2.10;99.90;;;;;;5085490;28;20956;-53
2022/04/26 04:23:22;;;;;;;9.77;8.27;;;2.20;99.90;;;;;;5082821;28;20575;-53
2022/04/26 04:25:49;;;;;;;13.07;7.77;;;2.30;85.10;;;;;;5079206;28;20598;-53
2022/04/26 04:28:16;;;;;;;9.33;7.97;;;2.40;80.20;;;;;;5079996;28;20573;-53
2022/04/26 04:30:42;;;;;;;8.10;7.30;;;2.60;23.10;;;;;;5079593;28;20456;-53
2022/04/26 04:33:09;;;;;;;9.33;8.43;;;2.70;25.30;;;;;;5076873;28;20569;-53
2022/04/26 04:35:36;;;;;;;24.43;9.47;;;2.80;28.40;;;;;;5082895;28;20468;-53
2022/04/26 04:38:04;;;;;;;18.83;9.00;;;2.80;34.80;;;;;;5078930;28;20965;-52
2022/04/26 04:40:30;;;;;;;16.10;8.30;;;2.90;43.90;;;;;;5081550;28;20495;-53
2022/04/26 04:42:57;;;;;;;18.20;9.10;;;3.00;48.00;;;;;;5080947;28;20509;-53
2022/04/26 04:45:24;;;;;;;13.50;8.53;;;3.00;44.40;;;;;;5071420;28;20549;-54
2022/04/26 04:47:51;;;;;;;14.73;8.30;;;3.10;49.00;;;;;;5079452;28;20456;-52
2022/04/26 04:50:17;;;;;;;19.23;8.80;;;3.20;45.70;;;;;;5077176;28;20525;-52
2022/04/26 04:52:45;;;;;;;24.43;8.90;;;3.30;48.80;;;;;;5073951;28;20976;-53
2022/04/26 04:55:13;;;;;;;20.20;9.30;;;3.50;36.20;;;;;;5074405;28;20496;-53
2022/04/26 04:57:40;;;;;;;13.33;9.33;;;3.60;35.50;;;;;;5073633;28;20496;-53
2022/04/26 05:00:08;;;;;;;22.00;9.67;;;3.80;29.90;;;;;;5076615;28;21176;-52
2022/04/26 05:02:34;;;;;;;16.53;9.80;;;3.90;31.50;;;;;;5072503;28;20579;-54
2022/04/26 05:05:01;;;;;;;15.37;10.40;;;4.10;34.40;;;;;;5075676;28;20523;-52
2022/04/26 05:07:29;;;;;;;10.60;9.50;;;4.20;35.10;;;;;;5075203;28;20464;-51
2022/04/26 05:09:55;;;;;;;13.00;10.37;;;4.40;73.70;;;;;;5080430;28;20843;-51
2022/04/26 05:12:23;;;;;;;11.83;10.50;;;4.60;21.40;;;;;;5084487;28;20505;-51
2022/04/26 05:14:50;;;;;;;14.87;10.97;;;4.80;21.50;;;;;;5081277;28;20460;-50
2022/04/26 05:17:16;;;;;;;15.70;10.23;;;5.00;29.90;;;;;;5083673;28;20459;-51
2022/04/26 05:19:43;;;;;;;23.73;10.57;;;5.10;39.50;;;;;;5080974;28;20480;-50
2022/04/26 05:22:10;;;;;;;16.43;10.23;;;5.30;47.60;;;;;;5081454;28;20459;-49
2022/04/26 05:24:53;;;;;;;19.63;11.37;;;5.50;47.80;;;;;;5079919;28;20495;-52
2022/04/26 05:27:19;;;;;;;27.90;11.87;;;5.60;55.00;;;;;;5078485;28;20484;-50
2022/04/26 05:29:48;;;;;;;34.37;13.40;;;5.80;60.80;;;;;;5078353;28;20472;-51
2022/04/26 05:32:19;;;;;;;15.83;11.87;;;5.80;59.00;;;;;;5080959;28;20513;-52
2022/04/26 05:34:45;;;;;;;19.00;12.93;;;6.00;67.50;;;;;;5084634;28;20525;-53
2022/04/26 05:37:12;;;;;;;18.33;13.40;;;6.20;72.30;;;;;;5091200;28;20455;-53
2022/04/26 05:39:38;;;;;;;19.90;13.77;;;6.30;74.30;;;;;;5091553;28;20447;-53
2022/04/26 05:42:05;;;;;;;18.70;13.47;;;6.40;74.30;;;;;;5087080;28;20490;-54
2022/04/26 05:44:32;;;;;;;24.30;14.30;;;6.60;83.80;;;;;;5086387;28;20512;-53
2022/04/26 05:47:02;;;;;;;16.63;13.50;;;6.70;87.00;;;;;;5088097;28;20456;-53
2022/04/26 05:49:30;;;;;;;29.93;13.63;;;6.80;92.30;;;;;;5093910;28;20862;-52
2022/04/26 05:51:56;;;;;;;30.07;15.10;;;6.90;94.10;;;;;;5088600;28;20460;-53
2022/04/26 05:54:23;;;;;;;20.10;14.77;;;7.10;99.90;;;;;;5095143;28;20649;-53
2022/04/26 05:56:52;;;;;;;30.03;12.07;;;7.20;99.90;;;;;;5092014;28;20489;-53
2022/04/26 05:59:19;;;;;;;25.23;14.90;;;7.40;99.90;;;;;;5088495;28;20460;-51
2022/04/26 06:01:46;;;;;;;31.67;14.00;;;7.60;99.90;;;;;;5087447;28;20459;-52
2022/04/26 06:04:14;;;;;;;48.10;14.33;;;7.70;99.90;;;;;;5093658;28;20487;-50
2022/04/26 06:06:41;;;;;;;32.23;13.40;;;8.00;99.90;;;;;;5090275;28;20963;-53
2022/04/26 06:09:08;;;;;;;25.03;12.53;;;8.30;99.90;;;;;;5092840;28;20480;-53
2022/04/26 06:11:34;;;;;;;21.67;12.23;;;8.40;99.90;;;;;;5085968;28;20472;-51
2022/04/26 06:14:01;;;;;;;45.97;13.43;;;8.50;99.90;;;;;;5079494;28;20488;-50
2022/04/26 06:16:28;;;;;;;21.23;10.97;;;8.60;99.90;;;;;;5090345;28;20464;-50
2022/04/26 06:18:55;;;;;;;25.40;11.53;;;8.80;99.90;;;;;;5091789;28;20452;-51
2022/04/26 06:21:23;;;;;;;24.10;11.93;;;9.10;82.50;;;;;;5077593;28;20549;-51
2022/04/26 06:23:50;;;;;;;16.63;10.27;;;9.40;35.80;;;;;;5089573;28;20480;-51
2022/04/26 06:26:18;;;;;;;21.47;9.67;;;9.60;56.10;;;;;;5089244;28;20528;-51
2022/04/26 06:28:47;;;;;;;18.63;8.53;;;9.80;70.70;;;;;;5088398;28;20483;-50
2022/04/26 06:31:14;;;;;;;22.93;8.00;;;10.10;73.60;;;;;;5093470;28;20463;-50
2022/04/26 06:33:40;;;;;;;14.23;7.80;;;10.20;88.30;;;;;;5090873;28;20529;-49
2022/04/26 06:36:07;;;;;;;18.67;8.40;;;10.20;96.30;;;;;;5087543;28;20489;-50
2022/04/26 06:38:35;;;;;;;16.03;7.27;;;10.30;99.90;;;;;;5083220;28;20523;-49
2022/04/26 06:41:01;;;;;;;12.57;6.87;;;10.30;99.90;;;;;;5083307;28;20967;-49
2022/04/26 06:43:32;;;;;;;14.73;6.53;;;10.50;99.90;;;;;;5086415;28;20501;-50
2022/04/26 06:45:58;;;;;;;13.27;6.77;;;10.70;99.90;;;;;;5088075;28;20468;-50
2022/04/26 06:48:25;;;;;;;13.00;7.23;;;10.90;99.90;;;;;;5090226;28;20460;-50
2022/04/26 06:50:54;;;;;;;15.60;5.70;;;11.10;99.90;;;;;;5080352;28;20519;-49
2022/04/26 06:53:20;;;;;;;7.40;5.60;;;11.10;99.90;;;;;;5090291;28;20511;-51
2022/04/26 06:55:48;;;;;;;11.07;5.77;;;11.20;99.90;;;;;;5092155;28;20480;-51
2022/04/26 06:58:15;;;;;;;10.63;4.60;;;11.50;99.90;;;;;;5087949;28;20506;-50
2022/04/26 07:00:41;;;;;;;32.63;4.87;;;11.60;99.90;;;;;;5086417;28;20456;-50
2022/04/26 07:03:08;;;;;;;8.33;4.57;;;11.80;99.90;;;;;;5087249;28;20484;-51
2022/04/26 07:05:35;;;;;;;8.97;3.10;;;11.80;99.90;;;;;;5086578;28;20488;-50
2022/04/26 07:08:01;;;;;;;2.50;2.30;;;11.90;99.90;;;;;;5086370;28;20505;-50
2022/04/26 07:10:29;;;;;;;6.03;2.73;;;12.30;99.90;;;;;;5080853;28;20480;-50
2022/04/26 07:12:57;;;;;;;6.13;3.07;;;12.60;99.90;;;;;;5088350;28;20471;-53
2022/04/26 07:15:24;;;;;;;3.40;3.03;;;12.80;99.90;;;;;;5082146;28;20486;-51
2022/04/26 07:17:50;;;;;;;6.03;3.40;;;13.20;99.90;;;;;;5080701;28;20460;-51
2022/04/26 07:20:17;;;;;;;3.30;3.00;;;13.10;99.90;;;;;;5081389;28;20522;-50
2022/04/26 07:22:44;;;;;;;4.57;2.90;;;12.90;99.90;;;;;;5079455;28;20513;-51
2022/04/26 07:25:11;;;;;;;3.83;2.20;;;12.80;99.90;;;;;;5080647;28;21997;-52
2022/04/26 07:27:38;;;;;;;3.57;2.30;;;12.40;99.90;;;;;;5080837;28;20946;-52
2022/04/26 07:30:07;;;;;;;3.17;2.80;;;12.30;99.90;;;;;;5077245;28;20511;-51
2022/04/26 07:35:18;;;;;;;3.57;3.20;;;12.50;99.90;;;;;;5083322;28;20451;-51
2022/04/26 07:37:45;;;;;;;3.37;3.17;;;12.20;99.90;;;;;;5080027;28;20526;-53
2022/04/26 07:40:12;;;;;;;3.10;3.00;;;12.20;99.90;;;;;;5078977;28;20492;-53
2022/04/26 07:42:39;;;;;;;4.83;4.43;;;12.40;99.90;;;;;;5078971;28;20484;-54
2022/04/26 07:45:09;;;;;;;4.60;4.30;;;12.50;99.90;;;;;;5081699;28;20464;-54
2022/04/26 07:47:37;;;;;;;4.97;4.50;;;12.60;99.90;;;;;;5079747;28;21029;-54
2022/04/26 07:50:04;;;;;;;5.23;4.20;;;12.60;99.90;;;;;;5079179;28;21255;-53
2022/04/26 07:52:31;;;;;;;11.23;4.93;;;12.70;99.90;;;;;;5078668;28;20545;-54
2022/04/26 07:54:58;;;;;;;4.23;3.93;;;12.70;99.90;;;;;;5073406;28;20461;-54
2022/04/26 07:57:24;;;;;;;5.00;3.93;;;12.80;99.90;;;;;;5082473;28;20509;-55
2022/04/26 07:59:51;;;;;;;13.27;4.60;;;12.80;99.90;;;;;;5084593;28;20486;-54
2022/04/26 08:02:20;;;;;;;8.20;4.60;;;12.90;99.90;;;;;;5081836;28;20464;-54
2022/04/26 08:04:47;;;;;;;4.17;3.77;;;13.10;99.90;;;;;;5088864;28;21043;-56
2022/04/26 08:07:14;;;;;;;10.27;4.70;;;13.50;99.90;;;;;;5085547;28;20501;-56
2022/04/26 08:09:40;;;;;;;5.73;3.33;;;13.30;99.90;;;;;;5083429;28;20480;-55
2022/04/26 08:12:07;;;;;;;9.40;3.57;;;13.40;99.90;;;;;;5082771;28;20472;-56
2022/04/26 08:14:34;;;;;;;3.43;3.13;;;13.50;99.90;;;;;;5085255;28;20529;-56
2022/04/26 08:17:01;;;;;;;4.00;3.70;;;13.90;99.90;;;;;;5083748;28;20452;-56
2022/04/26 08:19:29;;;;;;;3.33;3.13;;;14.20;99.90;;;;;;5088237;28;20943;-56
2022/04/26 08:21:55;;;;;;;5.30;3.03;;;14.30;99.90;;;;;;5078373;28;20492;-56
2022/04/26 08:27:25;;;;;;;2.67;2.57;;;14.40;99.90;;;;;;5081051;28;20594;-55
2022/04/26 08:29:52;;;;;;;3.20;3.00;;;13.90;99.90;;;;;;5081021;28;20578;-55
2022/04/26 08:32:18;;;;;;;2.93;2.73;;;14.30;99.90;;;;;;5079201;28;20464;-56
2022/04/26 08:34:46;;;;;;;5.93;3.20;;;14.40;99.90;;;;;;5084678;28;20469;-56
2022/04/26 08:37:13;;;;;;;3.30;3.00;;;14.40;99.90;;;;;;5076220;28;20835;-55
2022/04/26 08:39:40;;;;;;;3.27;3.00;;;15.00;99.90;;;;;;5085839;28;20453;-56
2022/04/26 08:42:07;;;;;;;5.90;3.00;;;15.60;99.90;;;;;;5086808;28;20815;-56
2022/04/26 08:44:34;;;;;;;3.17;2.87;;;16.00;99.90;;;;;;5084414;28;20472;-56
2022/04/26 08:52:46;;;;;;;2.63;2.43;;;18.00;99.90;;;;;;5082232;28;20503;-55
2022/04/26 08:55:12;;;;;;;2.83;2.63;;;17.10;99.90;;;;;;5078102;28;20959;-56
2022/04/26 08:57:39;;;;;;;3.13;2.30;;;17.10;99.90;;;;;;5085612;28;20452;-54
2022/04/26 09:00:11;;;;;;;3.00;2.80;;;17.30;99.90;;;;;;5080416;28;20951;-54
2022/04/26 09:02:38;;;;;;;3.10;3.00;;;17.00;99.90;;;;;;5082036;28;20476;-51
2022/04/26 09:05:13;;;;;;;4.20;2.87;;;17.30;99.90;;;;;;5089019;28;20460;-51
2022/04/26 09:07:40;;;;;;;4.13;2.80;;;17.90;99.90;;;;;;5082547;28;20467;-50
2022/04/26 09:10:09;;;;;;;6.00;2.73;;;18.00;99.90;;;;;;5084163;28;20610;-50
2022/04/26 09:12:59;;;;;;;5.77;3.00;;;18.40;99.90;;;;;;5081663;28;20471;-51
2022/04/26 09:15:30;;;;;;;2.70;2.60;;;17.50;99.90;;;;;;5077511;28;20852;-52
2022/04/26 09:18:13;;;;;;;5.10;2.60;;;18.20;99.90;;;;;;5092613;28;20448;-50
2022/04/26 09:20:41;;;;;;;2.50;2.30;;;18.90;99.90;;;;;;5083604;28;20487;-53
2022/04/26 09:23:16;;;;;;;2.70;2.60;;;17.90;99.90;;;;;;5087956;28;20525;-53
2022/04/26 09:25:43;;;;;;;2.90;2.70;;;18.60;99.90;;;;;;5075018;28;20977;-53
2022/04/26 09:28:19;;;;;;;2.57;2.40;;;18.70;99.90;;;;;;5081007;28;20444;-53
2022/04/26 09:30:45;;;;;;;3.07;2.63;;;19.20;99.90;;;;;;5081019;28;20528;-53
2022/04/26 09:33:30;;;;;;;3.23;2.40;;;19.40;99.90;;;;;;5087713;28;20995;-52
2022/04/26 09:36:01;;;;;;;2.50;2.30;;;18.90;99.90;;;;;;5083944;28;20460;-52
2022/04/26 09:38:31;;;;;;;6.03;2.70;;;18.30;99.90;;;;;;5094343;28;20460;-53
2022/04/26 09:41:00;;;;;;;6.20;2.90;;;18.60;99.90;;;;;;5080867;28;20449;-53
2022/04/26 09:43:28;;;;;;;2.53;2.37;;;18.40;99.90;;;;;;5081420;28;20586;-54
2022/04/26 09:45:56;;;;;;;3.40;3.10;;;18.80;99.90;;;;;;5079715;28;20466;-53
2022/04/26 09:48:26;;;;;;;4.47;2.90;;;19.20;99.90;;;;;;5080751;28;20539;-52
2022/04/26 09:50:53;;;;;;;3.23;2.27;;;18.70;99.90;;;;;;5079276;28;20513;-53
2022/04/26 09:53:21;;;;;;;4.87;2.00;;;19.10;99.90;;;;;;5083093;28;20916;-53
2022/04/26 09:55:48;;;;;;;2.30;2.20;;;19.80;99.90;;;;;;5083073;28;20460;-52
2022/04/26 09:58:19;;;;;;;3.53;2.20;;;18.50;99.90;;;;;;5075589;28;21136;-53
2022/04/26 10:00:49;;;;;;;3.33;2.93;;;18.70;99.90;;;;;;5079231;28;20476;-53
2022/04/26 10:03:20;;;;;;;3.67;2.27;;;19.70;99.90;;;;;;5089863;28;20491;-53
2022/04/26 10:05:50;;;;;;;7.83;6.40;;;19.20;99.90;;;;;;5076596;28;20448;-52
2022/04/26 10:08:19;;;;;;;2.30;2.20;;;19.60;99.90;;;;;;5084405;28;20460;-53
2022/04/26 10:10:47;;;;;;;6.63;3.20;;;19.60;99.90;;;;;;5077961;28;20472;-53
2022/04/26 10:13:32;;;;;;;29.90;2.70;;;20.60;99.90;;;;;;5077978;28;20477;-53
2022/04/26 10:15:59;;;;;;;9.50;1.87;;;19.70;99.90;;;;;;5081214;28;20521;-52
2022/04/26 10:18:29;;;;;;;2.70;1.83;;;19.60;99.90;;;;;;5085341;28;20467;-53
2022/04/26 10:20:56;;;;;;;2.60;2.30;;;19.40;99.90;;;;;;5088324;28;20475;-53
2022/04/26 10:23:22;;;;;;;2.57;2.47;;;18.70;99.90;;;;;;5081122;28;20529;-52
2022/04/26 10:26:25;;;;;;;4.10;3.70;;;19.00;99.90;;;;;;5082946;28;20525;-53
2022/04/26 10:28:54;;;;;;;2.83;2.63;;;18.80;99.90;;;;;;5077423;28;20460;-53
2022/04/26 10:31:35;;;;;;;3.03;2.83;;;18.60;99.90;;;;;;5088020;28;20641;-53
2022/04/26 10:34:03;;;;;;;2.10;2.00;;;19.40;99.90;;;;;;5088815;28;21952;-52
2022/04/26 10:36:34;;;;;;;2.17;2.07;;;19.60;99.90;;;;;;5086285;28;20488;-53
2022/04/26 10:39:23;;;;;;;3.50;3.20;;;20.10;99.90;;;;;;5093220;28;20460;-53
2022/04/26 10:41:51;;;;;;;3.33;3.10;;;20.30;99.90;;;;;;5091097;28;20452;-53
2022/04/26 10:44:30;;;;;;;3.63;3.43;;;20.20;99.90;;;;;;5078348;28;20476;-52
2022/04/26 10:47:34;;;;;;;3.30;3.10;;;19.70;99.90;;;;;;5091262;28;20896;-53
2022/04/26 10:50:00;;;;;;;4.40;2.93;;;18.60;99.90;;;;;;5088993;28;20455;-53
2022/04/26 10:52:43;;;;;;;3.63;3.33;;;19.60;99.90;;;;;;5096520;28;20976;-53
2022/04/26 10:55:12;;;;;;;5.57;3.60;;;20.00;99.90;;;;;;5085290;28;20955;-55
2022/04/26 10:57:42;;;;;;;3.53;3.23;;;19.50;99.90;;;;;;5084336;28;20457;-55
2022/04/26 11:00:10;;;;;;;4.27;3.67;;;19.20;99.90;;;;;;5087854;28;20453;-55
2022/04/26 11:02:39;;;;;;;3.20;3.00;;;18.70;99.90;;;;;;5078014;28;20506;-56
2022/04/26 11:05:08;;;;;;;4.03;3.00;;;18.80;99.90;;;;;;5082823;28;20496;-56
2022/04/26 11:07:35;;;;;;;3.37;3.13;;;18.90;99.90;;;;;;5081810;28;20460;-56
2022/04/26 11:10:04;;;;;;;3.97;3.20;;;18.90;99.90;;;;;;5084715;28;20456;-54
2022/04/26 11:12:33;;;;;;;3.83;3.30;;;19.60;99.90;;;;;;5088367;28;20468;-55
2022/04/26 11:15:02;;;;;;;5.80;2.30;;;20.20;99.90;;;;;;5076456;28;20467;-56
2022/04/26 11:17:30;;;;;;;2.70;2.60;;;20.90;99.90;;;;;;5089439;28;20797;-56
2022/04/26 11:19:58;;;;;;;2.90;2.70;;;21.40;99.90;;;;;;5083521;28;20478;-57
2022/04/26 11:22:25;;;;;;;2.70;2.57;;;21.90;99.90;;;;;;5081363;28;20548;-54
2022/04/26 11:28:06;;;;;;;3.30;3.00;;;19.80;99.90;;;;;;5079111;28;20444;-55
2022/04/26 11:30:36;;;;;;;3.50;2.60;;;19.50;99.90;;;;;;5081763;28;20479;-55
2022/04/26 11:33:05;;;;;;;2.60;2.40;;;20.50;99.90;;;;;;5079973;28;21272;-56
2022/04/26 11:35:32;;;;;;;4.60;2.37;;;20.20;99.90;;;;;;5087547;28;20459;-55
2022/04/26 11:38:04;;;;;;;11.70;2.80;;;20.10;99.90;;;;;;5087044;28;20814;-57
2022/04/26 11:40:32;;;;;;;3.43;2.70;;;20.20;99.90;;;;;;5078910;28;20488;-55
2022/04/26 11:43:05;;;;;;;2.97;2.80;;;19.80;99.90;;;;;;5078240;28;20484;-55
2022/04/26 11:45:35;;;;;;;3.40;3.30;;;18.90;99.90;;;;;;5077497;28;20506;-56
2022/04/26 11:48:02;;;;;;;3.13;2.20;;;18.10;99.90;;;;;;5087098;28;20510;-56
2022/04/26 11:50:30;;;;;;;3.23;2.43;;;17.90;99.90;;;;;;5089464;28;20484;-56
2022/04/26 11:53:01;;;;;;;2.03;1.93;;;18.10;99.90;;;;;;5086678;28;20576;-55
2022/04/26 11:55:30;;;;;;;2.20;2.10;;;17.90;99.90;;;;;;5084917;28;20528;-55
2022/04/26 11:58:14;;;;;;;2.43;2.23;;;17.70;99.90;;;;;;5080991;28;20531;-56
2022/04/26 12:00:53;;;;;;;2.90;2.70;;;17.40;99.90;;;;;;5079490;28;20463;-56
2022/04/26 12:03:21;;;;;;;2.43;2.23;;;17.20;99.90;;;;;;5085967;28;20492;-56
2022/04/26 12:05:50;;;;;;;8.13;2.60;;;17.10;99.90;;;;;;5077501;28;20549;-55
2022/04/26 12:08:17;;;;;;;2.63;2.53;;;17.10;99.90;;;;;;5082349;28;20483;-56
2022/04/26 12:10:45;;;;;;;3.00;2.80;;;16.90;99.90;;;;;;5079802;28;20519;-56
2022/04/26 12:13:11;;;;;;;4.60;2.90;;;16.90;99.90;;;;;;5074931;28;20487;-58
2022/04/26 12:15:39;;;;;;;16.50;8.37;;;16.60;99.90;;;;;;5078387;28;20893;-57
2022/04/26 12:18:14;;;;;;;3.30;3.00;;;16.70;99.90;;;;;;5085649;28;20844;-57
2022/04/26 12:20:57;;;;;;;3.60;3.30;;;16.70;99.90;;;;;;5081095;28;20451;-57
2022/04/26 12:23:24;;;;;;;3.80;3.03;;;16.70;99.90;;;;;;5077430;28;20484;-57
2022/04/26 12:25:55;;;;;;;3.10;2.80;;;16.80;99.90;;;;;;5078632;28;20547;-56
2022/04/26 12:28:22;;;;;;;3.43;3.07;;;16.70;99.90;;;;;;5079904;28;20555;-57
2022/04/26 12:30:49;;;;;;;3.17;2.60;;;16.70;99.90;;;;;;5072745;28;20621;-56
2022/04/26 12:33:27;;;;;;;4.10;2.20;;;16.70;99.90;;;;;;5083337;28;21455;-57
2022/04/26 12:35:58;;;;;;;3.87;2.63;;;16.60;99.90;;;;;;5093064;28;20537;-56
2022/04/26 12:38:25;;;;;;;2.70;2.60;;;16.50;99.90;;;;;;5075899;28;20507;-56
2022/04/26 12:41:01;;;;;;;5.77;2.77;;;16.50;99.90;;;;;;5079542;28;20456;-56
2022/04/26 12:43:28;;;;;;;20.80;2.90;;;16.90;99.90;;;;;;5080631;28;20477;-55
2022/04/26 12:46:01;;;;;;;3.70;2.90;;;18.50;99.90;;;;;;5076458;28;20456;-56
2022/04/26 12:51:17;;;;;;;2.73;2.50;;;20.40;99.90;;;;;;5040665;28;20951;-56
2022/04/26 12:53:45;;;;;;;2.70;2.50;;;21.20;99.90;;;;;;5082331;28;20601;-56
2022/04/26 12:56:13;;;;;;;10.07;2.73;;;20.40;99.90;;;;;;5081015;28;20467;-53
2022/04/26 12:58:40;;;;;;;2.60;2.37;;;20.00;99.90;;;;;;5086333;28;20882;-53
2022/04/26 13:01:08;;;;;;;2.40;2.30;;;20.70;99.90;;;;;;5074711;28;20515;-53
2022/04/26 13:03:38;;;;;;;2.83;2.60;;;21.30;99.90;;;;;;5083631;28;20483;-54
2022/04/26 13:06:08;;;;;;;2.80;2.60;;;21.80;99.90;;;;;;5080575;28;20459;-53
2022/04/26 13:08:36;;;;;;;4.00;2.33;;;20.00;99.90;;;;;;5080160;28;20468;-53
2022/04/26 13:11:04;;;;;;;2.93;2.73;;;20.40;99.90;;;;;;5079697;28;20480;-54
2022/04/26 13:13:31;;;;;;;9.43;2.60;;;20.50;99.90;;;;;;5082113;28;20521;-55
2022/04/26 13:15:57;;;;;;;5.70;2.57;;;20.80;99.90;;;;;;5078723;28;21662;-53
2022/04/26 13:18:24;;;;;;;2.30;2.13;;;21.20;99.90;;;;;;5082808;28;20460;-54
2022/04/26 13:20:54;;;;;;;2.00;1.90;;;21.30;99.90;;;;;;5080075;28;20526;-53
2022/04/26 13:23:22;;;;;;;4.23;2.30;;;21.30;99.90;;;;;;5082013;28;20490;-54
2022/04/26 13:25:50;;;;;;;2.10;2.00;;;21.40;99.90;;;;;;5080808;28;20460;-53
2022/04/26 13:28:16;;;;;;;2.50;2.30;;;20.90;99.90;;;;;;5081585;28;20487;-54
2022/04/26 13:30:43;;;;;;;1.93;1.83;;;21.30;99.90;;;;;;5085128;28;20933;-54
2022/04/26 13:33:10;;;;;;;2.40;2.20;;;21.70;99.90;;;;;;5085421;28;20919;-54
2022/04/26 13:35:38;;;;;;;1.67;1.67;;;21.60;99.90;;;;;;5082984;28;20460;-54
2022/04/26 13:38:09;;;;;;;4.30;2.33;;;22.00;99.90;;;;;;5088588;28;20963;-53
2022/04/26 13:40:37;;;;;;;2.20;2.10;;;21.90;99.90;;;;;;5089728;28;20966;-53
2022/04/26 13:43:04;;;;;;;3.37;1.57;;;20.90;99.90;;;;;;5085410;28;20878;-53
2022/04/26 13:45:32;;;;;;;1.77;1.77;;;21.50;99.90;;;;;;5083685;28;20464;-53
2022/04/26 13:47:59;;;;;;;4.00;1.93;;;21.50;99.90;;;;;;5082164;28;20456;-53
2022/04/26 13:50:25;;;;;;;1.57;1.33;;;21.60;99.90;;;;;;5084441;28;20496;-54
2022/04/26 13:52:52;;;;;;;1.73;1.63;;;21.40;99.90;;;;;;5081093;28;20495;-53
2022/04/26 13:55:20;;;;;;;2.37;1.90;;;19.90;99.90;;;;;;5083828;28;20963;-54
2022/04/26 13:57:47;;;;;;;2.50;1.60;;;19.10;99.90;;;;;;5084207;28;20959;-53
2022/04/26 14:00:16;;;;;;;1.80;1.70;;;18.90;99.90;;;;;;5081604;28;20467;-53
2022/04/26 14:02:46;;;;;;;15.63;2.67;;;18.40;99.90;;;;;;5082604;28;20483;-53
2022/04/26 14:05:12;;;;;;;8.43;2.20;;;18.20;99.90;;;;;;5079047;28;20492;-53
2022/04/26 14:07:39;;;;;;;1.80;1.70;;;18.20;99.90;;;;;;5084293;28;20452;-52
2022/04/26 14:10:07;;;;;;;3.80;1.50;;;19.10;99.90;;;;;;5083901;28;20488;-55
2022/04/26 14:12:35;;;;;;;2.50;2.30;;;19.90;99.90;;;;;;5082102;28;20537;-53
2022/04/26 14:23:15;;;;;;;2.20;2.10;;;18.20;99.90;;;;;;5088368;28;20962;-54
2022/04/26 14:25:41;;;;;;;2.27;2.07;;;18.10;99.90;;;;;;5079257;28;20480;-53
2022/04/26 14:28:09;;;;;;;2.13;2.00;;;17.80;99.90;;;;;;5077568;28;20533;-53
2022/04/26 14:30:36;;;;;;;2.90;1.77;;;17.60;99.90;;;;;;5086888;28;20451;-53
2022/04/26 14:33:03;;;;;;;2.10;1.90;;;17.40;99.90;;;;;;5083452;28;20483;-54
2022/04/26 14:35:32;;;;;;;3.60;2.17;;;17.30;99.90;;;;;;5085557;28;20468;-54
2022/04/26 14:37:58;;;;;;;2.10;1.93;;;17.20;99.90;;;;;;5087920;28;20460;-53
2022/04/26 14:40:25;;;;;;;1.70;1.60;;;17.20;99.90;;;;;;5083435;28;20521;-53
2022/04/26 14:42:54;;;;;;;9.70;2.30;;;17.20;99.90;;;;;;5083228;28;20994;-53
2022/04/26 14:45:22;;;;;;;6.10;1.70;;;17.30;99.90;;;;;;5082672;28;20539;-53
2022/04/26 14:47:49;;;;;;;2.10;1.97;;;17.60;99.90;;;;;;5089823;28;20933;-53
2022/04/26 14:50:17;;;;;;;1.73;1.57;;;18.00;99.90;;;;;;5087509;28;20543;-54
2022/04/26 14:52:44;;;;;;;2.70;2.03;;;18.00;99.90;;;;;;5083012;28;20488;-54
2022/04/26 14:55:11;;;;;;;1.90;1.80;;;18.00;99.90;;;;;;5093249;28;20493;-53
2022/04/26 14:57:38;;;;;;;1.97;1.87;;;18.30;99.90;;;;;;5085892;28;20452;-55
2022/04/26 15:00:06;;;;;;;3.90;1.87;;;17.80;99.90;;;;;;5086141;28;20468;-54
2022/04/26 15:02:38;;;;;;;2.47;2.20;;;17.90;99.90;;;;;;5085179;28;20461;-53
2022/04/26 15:05:07;;;;;;;2.03;1.93;;;17.70;99.90;;;;;;5085869;28;20547;-56
2022/04/26 15:09:42;;;;;;;2.63;1.73;;;17.50;99.90;;;;;;5088026;28;20460;-55
2022/04/26 15:10:20;;;;;;;3.33;1.60;;;17.50;99.90;;;;;;5104942;28;20456;-55
2022/04/26 15:18:17;;;;;;;1.90;1.90;;;18.90;99.90;;;;;;5104881;28;20478;-56
2022/04/26 15:20:50;;;;;;;1.87;1.77;;;18.70;99.90;;;;;;5099379;28;20456;-57
2022/04/26 15:23:17;;;;;;;2.40;1.90;;;18.60;99.90;;;;;;5088696;28;20571;-56
2022/04/26 15:25:48;;;;;;;9.43;2.20;;;18.40;99.90;;;;;;5091256;28;20467;-57
2022/04/26 15:28:15;;;;;;;2.40;1.70;;;18.80;99.90;;;;;;5092092;28;20475;-56
2022/04/26 15:30:43;;;;;;;1.80;1.70;;;19.20;99.90;;;;;;5089775;28;20521;-56
2022/04/26 15:33:09;;;;;;;1.90;1.50;;;19.70;99.90;;;;;;5090825;28;20476;-55
2022/04/26 15:35:38;;;;;;;5.13;1.97;;;18.70;99.90;;;;;;5087819;28;20464;-55
2022/04/26 15:38:05;;;;;;;6.93;2.03;;;18.40;99.90;;;;;;5085232;28;20910;-57
2022/04/26 15:40:32;;;;;;;11.23;1.70;;;17.90;99.90;;;;;;5082544;28;20554;-56
2022/04/26 15:42:59;;;;;;;5.53;1.93;;;18.60;99.90;;;;;;5087561;28;20568;-56
2022/04/26 15:45:25;;;;;;;1.87;1.77;;;18.60;99.90;;;;;;5085797;28;20517;-56
2022/04/26 15:47:52;;;;;;;3.90;1.83;;;18.40;99.90;;;;;;5083943;28;20486;-56
2022/04/26 15:50:19;;;;;;;7.07;1.97;;;18.10;99.90;;;;;;5087370;28;20538;-56
2022/04/26 15:52:47;;;;;;;3.47;2.00;;;18.30;99.90;;;;;;5089594;28;20564;-54
2022/04/26 15:55:13;;;;;;;2.03;1.83;;;18.30;99.90;;;;;;5085477;28;20460;-59
2022/04/26 15:57:42;;;;;;;4.20;2.17;;;18.00;99.90;;;;;;5082142;28;20460;-53
2022/04/26 16:00:10;;;;;;;2.80;2.17;;;18.00;99.90;;;;;;5085753;28;20555;-52
2022/04/26 16:02:39;;;;;;;1.60;1.50;;;18.30;99.90;;;;;;5084644;28;20547;-57
2022/04/26 16:05:06;;;;;;;6.10;2.23;;;18.30;99.90;;;;;;5092848;28;20459;-51
2022/04/26 16:07:33;;;;;;;8.63;2.27;;;18.00;99.90;;;;;;5087071;28;20459;-50
2022/04/26 16:20:57;;;;;;;2.13;2.03;;;19.10;99.90;;;;;;5067371;28;20461;-55
2022/04/26 16:23:24;;;;;;;7.30;1.60;;;18.80;99.90;;;;;;5080211;28;21053;-54
2022/04/26 16:25:52;;;;;;;2.20;1.97;;;18.20;99.90;;;;;;5085144;28;20505;-54
2022/04/26 16:28:19;;;;;;;1.73;1.63;;;17.60;99.90;;;;;;5082508;28;20534;-54
2022/04/26 16:30:46;;;;;;;2.03;1.77;;;17.10;99.90;;;;;;5076503;28;20509;-53
2022/04/26 16:33:13;;;;;;;3.73;3.10;;;16.80;99.90;;;;;;5081173;28;20568;-54
2022/04/26 16:35:40;;;;;;;3.70;1.80;;;16.50;99.90;;;;;;5089241;28;20479;-56
2022/04/26 16:38:06;;;;;;;3.20;2.33;;;16.30;99.90;;;;;;5081147;28;20464;-53
2022/04/26 16:40:34;;;;;;;1.53;1.53;;;16.10;99.90;;;;;;5081851;28;20492;-53
2022/04/26 16:43:02;;;;;;;1.93;1.83;;;16.00;99.90;;;;;;5091238;28;20507;-52
2022/04/26 16:45:29;;;;;;;5.60;2.10;;;16.00;99.90;;;;;;5091499;28;20529;-54
2022/04/26 16:47:56;;;;;;;2.40;2.30;;;15.90;99.90;;;;;;5091082;28;20456;-52
2022/04/26 16:50:23;;;;;;;2.07;1.97;;;15.90;99.90;;;;;;5089184;28;20475;-57
2022/04/26 16:52:50;;;;;;;3.13;2.00;;;15.80;99.90;;;;;;5090184;28;20480;-52
2022/04/26 16:55:16;;;;;;;6.90;1.90;;;15.90;99.90;;;;;;5086307;28;20488;-53
2022/04/26 16:57:44;;;;;;;2.20;2.03;;;15.90;99.90;;;;;;5094458;28;20460;-54
2022/04/26 17:00:15;;;;;;;2.30;2.20;;;16.00;99.90;;;;;;5104260;28;20462;-55
2022/04/26 17:02:42;;;;;;;2.80;1.60;;;16.00;99.90;;;;;;5100441;28;20487;-52
2022/04/26 17:05:11;;;;;;;1.80;1.70;;;16.00;99.90;;;;;;5092259;28;20484;-52
2022/04/26 17:07:38;;;;;;;4.47;2.37;;;16.00;99.90;;;;;;5087422;28;20453;-52
2022/04/26 17:10:06;;;;;;;2.50;2.30;;;16.00;99.90;;;;;;5087811;28;20543;-51